Have a Safe July 4th! 

Flight Track Log - Related Links

Times and Time Zones

All times are in EDT time to prevent confusion due to time zone crossing. See the RPA3247 flight status page for this flight to view local times or setup timezone preferences in your user account.

Time Position Orientation Groundspeed Altitude Reporting Facility
EDT Latitude Longitude Course Direction KTS MPH feet Rate Location/Type
Sun 05:35:19 PM 42.7319 -73.8053 123° Southeast 156 180 1,100  Level Boston Center
Sun 05:36:20 PM 42.7272 -73.8533 262° West 220 253 3,100 2,983 Climbing Boston Center
Sun 05:38:00 PM 42.4720 -74.0478 171° South  Level Estimated
Sun 05:38:12 PM 42.8006 -73.9739 310° West 234 269 9,700  Level Boston Center
Sun 05:39:00 PM 42.4026 -74.1089 170° South  Level Estimated
Sun 05:39:13 PM 42.8350 -74.0428 304° West 229 264 12,100  Level Boston Center
Sun 05:40:00 PM 42.3580 -74.0146 123° Southeast  Level FlightAware Approximate
Sun 05:41:12 PM 42.7653 -74.1256 221° Southwest 237 273 15,200  Level Boston Center
Sun 05:42:12 PM 42.6669 -74.1372 185° South 324 373 16,900 1,350 Climbing Boston Center
Sun 05:43:12 PM 42.5647 -74.1456 183° South 367 422 17,900 1,500 Climbing Boston Center
Sun 05:44:12 PM 42.4608 -74.1342 175° South 376 433 19,900 1,900 Climbing Boston Center
Sun 05:45:12 PM 42.3597 -74.0558 150° Southeast 381 438 21,700 1,050 Climbing Boston Center
Sun 05:46:12 PM 42.2586 -73.9800 151° Southeast 402 463 22,000 150 Climbing Boston Center
Sun 05:47:12 PM 42.1575 -73.8992 149° Southeast 407 468 22,000 1,100 Level Boston Center
Sun 05:48:12 PM 42.0606 -73.8242 150° Southeast 407 468 24,200 1,814 Climbing Boston Center
Sun 05:50:04 PM 41.8756 -73.8381 183° South 367 422 27,200 1,318 Climbing New York Center
Sun 05:51:05 PM 41.7719 -73.8944 202° Southwest 374 430 28,000 397 Climbing New York Center
Sun 05:52:05 PM 41.6581 -73.9531 201° Southwest 406 467 28,000  Level New York Center
Sun 05:53:06 PM 41.5333 -74.0192 202° Southwest 427 491 28,000  Level New York Center
Sun 05:54:07 PM 41.4131 -74.0825 202° Southwest 452 520 28,000  Level New York Center
Sun 05:55:05 PM 41.2925 -74.1456 201° Southwest 460 529 28,000  Level New York Center
Sun 05:56:06 PM 41.1700 -74.2028 199° South 460 529 28,000  Level New York Center
Sun 05:57:04 PM 41.0536 -74.2683 203° Southwest 465 535 28,000  Level New York Center
Sun 05:58:04 PM 40.9486 -74.3644 215° Southwest 460 529 28,000  Level New York Center
Sun 05:59:06 PM 40.8517 -74.4692 219° Southwest 460 529 28,000  Level New York Center
Sun 06:00:04 PM 40.7506 -74.5706 217° Southwest 460 529 28,000 -305 Level New York Center
Sun 06:01:04 PM 40.6511 -74.6742 218° Southwest 460 529 27,400 -992 Descending New York Center
Sun 06:02:05 PM 40.5581 -74.7783 220° Southwest 455 524 26,000 -1,289 Descending New York Center
Sun 06:03:05 PM 40.4772 -74.8908 227° Southwest 441 507 24,800 -1,109 Descending New York Center
Sun 06:04:04 PM 40.3981 -75.0033 227° Southwest 429 494 23,800 -958 Descending New York Center
Sun 06:05:04 PM 40.3211 -75.1131 227° Southwest 424 488 22,900 -893 Descending New York Center
Sun 06:06:05 PM 40.2444 -75.2197 227° Southwest 424 488 22,000 -446 Descending New York Center
Sun 06:07:05 PM 40.1692 -75.3289 228° Southwest 419 482 22,000  Level New York Center
Sun 06:08:06 PM 40.1008 -75.4247 227° Southwest 414 476 22,000  Level New York Center
Sun 06:09:07 PM 40.0239 -75.5281 226° Southwest 408 470 22,000  Level New York Center
Sun 06:10:04 PM 39.9506 -75.6397 229° Southwest 408 470 22,000  Level New York Center
Sun 06:11:05 PM 39.8789 -75.7536 231° Southwest 408 470 22,000  Level New York Center
Sun 06:12:06 PM 39.8097 -75.8622 230° Southwest 408 470 22,000 -50 Level New York Center
Sun 06:13:06 PM 39.7381 -75.9758 231° Southwest 408 470 21,900 -1,200 Descending New York Center
Sun 06:14:06 PM 39.6708 -76.0814 230° Southwest 401 461 19,600 -2,186 Descending New York Center
Sun 06:15:04 PM 39.6014 -76.1842 229° Southwest 386 444 17,600 -2,496 Descending New York Center
Sun 06:15:59 PM 39.5333 -76.2833 228° Southwest 356 410 14,900 -2,609 Descending Potomac TRACON
Sun 06:16:59 PM 39.4667 -76.3833 229° Southwest 350 403 12,600 -1,450 Descending Potomac TRACON
Sun 06:17:59 PM 39.4000 -76.4667 224° Southwest 347 399 12,000 -300 Descending Potomac TRACON
Sun 06:18:59 PM 39.3167 -76.5333 212° Southwest 329 379 12,000 -316 Level Potomac TRACON
Sun 06:19:53 PM 39.2500 -76.6000 218° Southwest 326 375 11,400 -1,000 Descending Potomac TRACON
Sun 06:20:59 PM 39.1833 -76.6500 210° Southwest 289 333 10,000 -667 Descending Potomac TRACON
Sun 06:21:59 PM 39.1167 -76.7167 218° Southwest 264 304 10,000 -50 Level Potomac TRACON
Sun 06:23:00 PM 39.0667 -76.7833 226° Southwest 264 304 9,900 -496 Descending Potomac TRACON
Sun 06:24:00 PM 39.0167 -76.8500 226° Southwest 255 293 9,000 -450 Descending Potomac TRACON
Sun 06:25:00 PM 38.9667 -76.9000 218° Southwest 195 224 9,000 -905 Level Potomac TRACON
Sun 06:26:06 PM 38.9667 -76.9667 270° West 175 201 7,100 -1,429 Descending Potomac TRACON
Sun 06:27:06 PM 38.9833 -77.0333 288° West 195 224 6,000 -574 Descending Potomac TRACON
Sun 06:28:01 PM 39.0167 -77.0833 311° West 199 229 6,000  Level Potomac TRACON
Sun 06:29:07 PM 39.0667 -77.1333 322° Northwest 200 230 6,000 -667 Level Potomac TRACON
Sun 06:30:07 PM 39.1000 -77.1833 311° West 198 228 4,600 -1,450 Descending Potomac TRACON
Sun 06:31:07 PM 39.0667 -77.2167 218° Southwest 158 182 3,100 -762 Descending Potomac TRACON
Sun 06:32:13 PM 39.0167 -77.2333 195° South 160 184 3,000 -48 Descending Potomac TRACON
Sun 06:33:13 PM 38.9833 -77.1833 131° Southeast 156 180 3,000 -200 Level Potomac TRACON
Sun 06:34:13 PM 38.9667 -77.1500 123° Southeast 155 178 2,600 -600 Descending Potomac TRACON
Sun 06:35:13 PM 38.9167 -77.1167 153° Southeast 157 181 1,800 -800 Descending Potomac TRACON

Login

Don't have an account? Register now (free) for customized features, flight alerts, and more!